Time;durP1;ratioP1;P1;durP2;ratioP2;P2;SDS_P1;SDS_P2;PMS_P1;PMS_P2;Temp;Humidity;BMP_temperature;BMP_pressure;BME280_temperature;BME280_humidity;BME280_pressure;Samples;Min_cycle;Max_cycle;Signal;HPM_P1;HPM_P2
2021/04/30 00:01:31;;;;;;;7.88;5.30;;;;;;;;;;5008502;28;20250;-79
2021/04/30 00:03:58;;;;;;;7.78;6.20;;;;;;;;;;4992077;28;20251;-79
2021/04/30 00:06:25;;;;;;;9.82;5.47;;;;;;;;;;4992249;28;20207;-81
2021/04/30 00:08:51;;;;;;;8.32;6.30;;;;;;;;;;4991902;28;20225;-80
2021/04/30 00:11:18;;;;;;;8.43;4.82;;;;;;;;;;4997301;28;20261;-79
2021/04/30 00:13:45;;;;;;;8.30;5.82;;;;;;;;;;5013855;28;20606;-78
2021/04/30 00:16:13;;;;;;;6.57;5.18;;;;;;;;;;5013893;28;20635;-78
2021/04/30 00:18:40;;;;;;;7.85;5.57;;;;;;;;;;5013972;28;20311;-79
2021/04/30 00:21:07;;;;;;;11.10;4.60;;;;;;;;;;5010877;28;20257;-79
2021/04/30 00:23:34;;;;;;;9.88;5.45;;;;;;;;;;5007676;28;20204;-80
2021/04/30 00:26:01;;;;;;;8.05;5.10;;;;;;;;;;5010541;28;20200;-79
2021/04/30 00:28:28;;;;;;;11.00;6.22;;;;;;;;;;4994049;28;20325;-79
2021/04/30 00:30:56;;;;;;;7.63;5.13;;;;;;;;;;5011326;28;20256;-77
2021/04/30 00:33:27;;;;;;;8.35;5.13;;;;;;;;;;4994259;28;20199;-78
2021/04/30 00:35:54;;;;;;;9.85;5.57;;;;;;;;;;5013642;28;20240;-79
2021/04/30 00:38:21;;;;;;;10.20;5.22;;;;;;;;;;5013406;28;20431;-79
2021/04/30 00:40:48;;;;;;;7.53;5.50;;;;;;;;;;5013383;28;20284;-78
2021/04/30 00:43:15;;;;;;;11.98;6.03;;;;;;;;;;5010348;28;20722;-79
2021/04/30 00:45:42;;;;;;;10.13;6.70;;;;;;;;;;5007802;28;20566;-77
2021/04/30 00:48:12;;;;;;;11.73;5.40;;;;;;;;;;5010547;28;20204;-79
2021/04/30 00:50:40;;;;;;;13.75;6.25;;;;;;;;;;4994094;28;20228;-78
2021/04/30 00:53:07;;;;;;;11.80;6.00;;;;;;;;;;5010761;28;20206;-80
2021/04/30 00:55:34;;;;;;;6.90;6.13;;;;;;;;;;5011057;28;20772;-79
2021/04/30 00:58:01;;;;;;;7.25;5.57;;;;;;;;;;5013154;28;20246;-80
2021/04/30 01:00:29;;;;;;;7.65;5.85;;;;;;;;;;4995908;28;20298;-79
2021/04/30 01:02:56;;;;;;;11.27;5.97;;;;;;;;;;4995780;28;20196;-82
2021/04/30 01:05:24;;;;;;;9.10;6.30;;;;;;;;;;5008790;28;20199;-79
2021/04/30 01:07:52;;;;;;;8.93;6.68;;;;;;;;;;5007607;28;20228;-79
2021/04/30 01:10:19;;;;;;;12.35;6.68;;;;;;;;;;4992269;28;20224;-79
2021/04/30 01:12:46;;;;;;;11.70;6.45;;;;;;;;;;5010634;28;20250;-79
2021/04/30 01:15:14;;;;;;;9.77;6.97;;;;;;;;;;5010365;28;20196;-79
2021/04/30 01:17:42;;;;;;;9.32;7.05;;;;;;;;;;5011277;28;20238;-77
2021/04/30 01:20:10;;;;;;;16.63;8.02;;;;;;;;;;5012847;28;20205;-80
2021/04/30 01:22:38;;;;;;;12.38;7.88;;;;;;;;;;4995489;28;20192;-80
2021/04/30 01:25:05;;;;;;;15.68;8.57;;;;;;;;;;5012797;28;20203;-78
2021/04/30 01:27:33;;;;;;;14.05;8.55;;;;;;;;;;5008507;28;20219;-80
2021/04/30 01:30:00;;;;;;;15.25;9.70;;;;;;;;;;5007347;28;21369;-80
2021/04/30 01:32:27;;;;;;;15.88;9.35;;;;;;;;;;5009224;28;20211;-79
2021/04/30 01:34:54;;;;;;;13.23;8.93;;;;;;;;;;5010114;28;20195;-81
2021/04/30 01:37:21;;;;;;;20.00;9.25;;;;;;;;;;5009850;28;20204;-81
2021/04/30 01:39:49;;;;;;;12.82;9.55;;;;;;;;;;5010524;28;20200;-81
2021/04/30 01:42:15;;;;;;;15.10;9.75;;;;;;;;;;5007806;28;20203;-80
2021/04/30 01:44:42;;;;;;;14.20;8.73;;;;;;;;;;5006691;28;20184;-80
2021/04/30 01:47:09;;;;;;;16.50;9.18;;;;;;;;;;5009259;28;20609;-79
2021/04/30 01:49:36;;;;;;;12.57;9.95;;;;;;;;;;5009501;28;20224;-78
2021/04/30 01:52:03;;;;;;;11.18;9.18;;;;;;;;;;5009486;28;20817;-78
2021/04/30 01:54:30;;;;;;;13.18;10.13;;;;;;;;;;5010512;28;20242;-78
2021/04/30 01:56:57;;;;;;;18.55;10.27;;;;;;;;;;5007374;28;20200;-78
2021/04/30 01:59:24;;;;;;;17.25;10.85;;;;;;;;;;5006793;28;20207;-79
2021/04/30 02:01:51;;;;;;;19.05;9.95;;;;;;;;;;5008973;28;20800;-80
2021/04/30 02:04:18;;;;;;;15.00;10.88;;;;;;;;;;5009358;28;20202;-79
2021/04/30 02:06:47;;;;;;;13.55;10.38;;;;;;;;;;5009602;28;20196;-78
2021/04/30 02:09:13;;;;;;;13.18;9.65;;;;;;;;;;5009570;28;20234;-78
2021/04/30 02:11:40;;;;;;;14.73;9.55;;;;;;;;;;4987884;28;20196;-78
2021/04/30 02:14:08;;;;;;;15.10;10.85;;;;;;;;;;5006422;28;20657;-79
2021/04/30 02:16:35;;;;;;;17.27;11.05;;;;;;;;;;5008789;28;20199;-80
2021/04/30 02:19:02;;;;;;;15.25;10.60;;;;;;;;;;5009338;28;20258;-81
2021/04/30 02:21:29;;;;;;;14.73;9.93;;;;;;;;;;5009427;28;20210;-81
2021/04/30 02:23:56;;;;;;;13.77;9.43;;;;;;;;;;5007803;28;20215;-78
2021/04/30 02:26:25;;;;;;;12.35;9.88;;;;;;;;;;5006221;28;20188;-78
2021/04/30 02:28:52;;;;;;;12.13;10.30;;;;;;;;;;5008360;28;20282;-80
2021/04/30 02:31:20;;;;;;;15.60;10.60;;;;;;;;;;5008698;28;20224;-78
2021/04/30 02:33:47;;;;;;;13.60;10.45;;;;;;;;;;5009262;28;20221;-80
2021/04/30 02:36:14;;;;;;;15.02;10.40;;;;;;;;;;5009409;28;20208;-79
2021/04/30 02:38:40;;;;;;;15.40;11.05;;;;;;;;;;5007381;28;20207;-81
2021/04/30 02:41:07;;;;;;;15.68;10.93;;;;;;;;;;5006029;28;20204;-78
2021/04/30 02:43:35;;;;;;;14.48;9.45;;;;;;;;;;5008923;28;20207;-80
2021/04/30 02:46:02;;;;;;;17.25;10.63;;;;;;;;;;4991484;28;20597;-79
2021/04/30 02:48:32;;;;;;;17.15;10.75;;;;;;;;;;5009587;28;20227;-79
2021/04/30 02:51:00;;;;;;;17.52;10.00;;;;;;;;;;5010090;28;20635;-79
2021/04/30 02:53:27;;;;;;;15.95;10.50;;;;;;;;;;4993983;28;20344;-78
2021/04/30 02:55:54;;;;;;;13.27;9.20;;;;;;;;;;5011368;28;20226;-81
2021/04/30 02:58:21;;;;;;;13.35;9.90;;;;;;;;;;5011594;28;20609;-78
2021/04/30 03:00:48;;;;;;;15.98;11.32;;;;;;;;;;5007690;28;20193;-78
2021/04/30 03:03:15;;;;;;;15.38;10.40;;;;;;;;;;5006218;28;20283;-79
2021/04/30 03:05:43;;;;;;;14.52;10.30;;;;;;;;;;5008867;28;20703;-79
2021/04/30 03:08:10;;;;;;;12.75;9.68;;;;;;;;;;5008779;28;20232;-80
2021/04/30 03:10:37;;;;;;;12.93;10.23;;;;;;;;;;5009093;28;20232;-79
2021/04/30 03:13:04;;;;;;;15.85;11.10;;;;;;;;;;5009936;28;20675;-81
2021/04/30 03:15:31;;;;;;;18.15;10.65;;;;;;;;;;5011323;28;20204;-78
2021/04/30 03:17:57;;;;;;;17.75;11.55;;;;;;;;;;5011330;28;20570;-79
2021/04/30 03:20:24;;;;;;;16.95;11.55;;;;;;;;;;5011568;28;20207;-80
2021/04/30 03:22:52;;;;;;;21.10;12.15;;;;;;;;;;5007637;28;20200;-80
2021/04/30 03:25:19;;;;;;;17.95;12.60;;;;;;;;;;5005864;28;20192;-80
2021/04/30 03:27:46;;;;;;;18.58;12.10;;;;;;;;;;4990888;28;20251;-80
2021/04/30 03:30:14;;;;;;;15.50;11.45;;;;;;;;;;4991376;28;20314;-80
2021/04/30 03:32:41;;;;;;;17.27;11.23;;;;;;;;;;4991580;28;20208;-80
2021/04/30 03:35:08;;;;;;;15.40;11.35;;;;;;;;;;5012289;28;20721;-80
2021/04/30 03:37:35;;;;;;;18.10;12.88;;;;;;;;;;5014489;28;20223;-79
2021/04/30 03:40:04;;;;;;;16.50;11.98;;;;;;;;;;5014874;28;20203;-78
2021/04/30 03:42:30;;;;;;;13.57;11.27;;;;;;;;;;5014473;28;20200;-80
2021/04/30 03:44:57;;;;;;;15.20;11.25;;;;;;;;;;5011440;28;20246;-83
2021/04/30 03:47:24;;;;;;;15.02;11.10;;;;;;;;;;5008978;28;20203;-79
2021/04/30 03:49:51;;;;;;;14.38;10.98;;;;;;;;;;4992491;28;20213;-79
2021/04/30 03:52:17;;;;;;;16.85;12.27;;;;;;;;;;4995420;28;20200;-79
2021/04/30 03:54:44;;;;;;;15.35;10.93;;;;;;;;;;4996849;28;20228;-79
2021/04/30 03:57:12;;;;;;;17.67;11.20;;;;;;;;;;4998335;28;20208;-78
2021/04/30 03:59:39;;;;;;;14.68;10.85;;;;;;;;;;5015939;28;20269;-81
2021/04/30 04:02:05;;;;;;;16.77;12.05;;;;;;;;;;5014738;28;20197;-80
2021/04/30 04:04:32;;;;;;;15.20;11.00;;;;;;;;;;5014208;28;20196;-82
2021/04/30 04:06:59;;;;;;;16.30;12.02;;;;;;;;;;5011123;28;20221;-79
2021/04/30 04:09:26;;;;;;;17.52;12.85;;;;;;;;;;5007821;28;20232;-80
2021/04/30 04:11:52;;;;;;;19.20;13.18;;;;;;;;;;5011096;28;20206;-81
2021/04/30 04:14:20;;;;;;;16.02;12.80;;;;;;;;;;5011736;28;20199;-77
2021/04/30 04:16:47;;;;;;;17.50;12.75;;;;;;;;;;5011552;28;20672;-78
2021/04/30 04:19:17;;;;;;;26.77;14.00;;;;;;;;;;5011835;28;20220;-80
2021/04/30 04:21:44;;;;;;;17.15;11.95;;;;;;;;;;5014047;28;20288;-79
2021/04/30 04:24:11;;;;;;;17.05;11.90;;;;;;;;;;5013687;28;20565;-76
2021/04/30 04:26:38;;;;;;;22.45;13.07;;;;;;;;;;5013813;28;20282;-78
2021/04/30 04:29:05;;;;;;;18.15;13.32;;;;;;;;;;5010914;28;20238;-78
2021/04/30 04:31:34;;;;;;;15.27;11.82;;;;;;;;;;5007650;28;20628;-78
2021/04/30 04:34:01;;;;;;;16.30;11.70;;;;;;;;;;5010805;28;20196;-77
2021/04/30 04:36:28;;;;;;;16.45;12.70;;;;;;;;;;5011429;28;20204;-77
2021/04/30 04:38:55;;;;;;;24.05;13.15;;;;;;;;;;5011250;28;20212;-79
2021/04/30 04:41:21;;;;;;;24.90;13.13;;;;;;;;;;5011618;28;20196;-78
2021/04/30 04:43:48;;;;;;;16.60;12.95;;;;;;;;;;5013222;28;20201;-79
2021/04/30 04:46:15;;;;;;;14.40;11.65;;;;;;;;;;5012115;28;20201;-77
2021/04/30 04:48:43;;;;;;;22.23;13.30;;;;;;;;;;5013290;28;20223;-79
2021/04/30 04:51:10;;;;;;;15.30;11.73;;;;;;;;;;5010627;28;20704;-77
2021/04/30 04:53:37;;;;;;;16.30;12.57;;;;;;;;;;5007190;28;20558;-79
2021/04/30 04:56:03;;;;;;;16.10;11.25;;;;;;;;;;5010304;28;20188;-77
2021/04/30 04:58:30;;;;;;;18.27;11.20;;;;;;;;;;5010599;28;20311;-78
2021/04/30 05:00:57;;;;;;;19.10;13.13;;;;;;;;;;5010582;28;20196;-81
2021/04/30 05:03:24;;;;;;;17.17;11.40;;;;;;;;;;5010862;28;20196;-80
2021/04/30 05:05:52;;;;;;;17.05;12.05;;;;;;;;;;5013049;28;20553;-81
2021/04/30 05:08:18;;;;;;;17.42;12.05;;;;;;;;;;5012755;28;20235;-80
2021/04/30 05:10:45;;;;;;;16.40;12.10;;;;;;;;;;5012941;28;20247;-81
2021/04/30 05:13:12;;;;;;;19.00;12.00;;;;;;;;;;5010494;28;20203;-78
2021/04/30 05:15:39;;;;;;;18.85;12.35;;;;;;;;;;5006347;28;20619;-78
2021/04/30 05:18:05;;;;;;;21.85;12.40;;;;;;;;;;5009039;28;20222;-80
2021/04/30 05:20:32;;;;;;;15.25;12.38;;;;;;;;;;5010301;28;20249;-77
2021/04/30 05:23:01;;;;;;;15.93;11.73;;;;;;;;;;5010553;28;20682;-80
2021/04/30 05:25:28;;;;;;;15.48;11.68;;;;;;;;;;5010144;28;20192;-78
2021/04/30 05:27:55;;;;;;;17.77;12.57;;;;;;;;;;5007101;28;20213;-79
2021/04/30 05:30:22;;;;;;;21.60;12.90;;;;;;;;;;5007640;28;20229;-79
2021/04/30 05:32:49;;;;;;;20.75;12.20;;;;;;;;;;5010239;28;20288;-82
2021/04/30 05:35:16;;;;;;;19.70;12.45;;;;;;;;;;5010180;28;20192;-78
2021/04/30 05:37:43;;;;;;;17.13;12.77;;;;;;;;;;5010652;28;20225;-79
2021/04/30 05:40:12;;;;;;;17.98;12.55;;;;;;;;;;5011510;28;20202;-77
2021/04/30 05:42:39;;;;;;;15.20;11.60;;;;;;;;;;5012008;28;20201;-79
2021/04/30 05:45:06;;;;;;;16.58;11.48;;;;;;;;;;5012540;28;20691;-76
2021/04/30 05:47:33;;;;;;;18.15;11.57;;;;;;;;;;5012238;28;20239;-79
2021/04/30 05:50:00;;;;;;;16.98;12.00;;;;;;;;;;5007972;28;20220;-78
2021/04/30 05:52:27;;;;;;;15.63;13.02;;;;;;;;;;5006486;28;20549;-76
2021/04/30 05:54:54;;;;;;;18.98;12.00;;;;;;;;;;5009357;28;20667;-80
2021/04/30 05:57:21;;;;;;;22.58;12.73;;;;;;;;;;5009292;28;20599;-79
2021/04/30 05:59:48;;;;;;;15.85;11.45;;;;;;;;;;5010184;28;20188;-78
2021/04/30 06:02:15;;;;;;;16.60;12.25;;;;;;;;;;5010629;28;20256;-79
2021/04/30 06:04:42;;;;;;;21.02;13.23;;;;;;;;;;5011858;28;20207;-78
2021/04/30 06:07:08;;;;;;;16.25;10.85;;;;;;;;;;5011978;28;20197;-77
2021/04/30 06:09:35;;;;;;;18.88;11.80;;;;;;;;;;5003328;28;20251;-79
2021/04/30 06:12:02;;;;;;;16.67;12.50;;;;;;;;;;5003461;28;20268;-78
2021/04/30 06:14:30;;;;;;;18.90;12.25;;;;;;;;;;5008530;28;20220;-79
2021/04/30 06:16:57;;;;;;;12.60;10.77;;;;;;;;;;5009408;28;20190;-79
2021/04/30 06:19:24;;;;;;;15.77;12.10;;;;;;;;;;5009179;28;20219;-79
2021/04/30 06:21:51;;;;;;;22.63;11.70;;;;;;;;;;5009010;28;20206;-79
2021/04/30 06:24:18;;;;;;;16.17;12.15;;;;;;;;;;5005751;28;20530;-78
2021/04/30 06:26:45;;;;;;;18.80;11.40;;;;;;;;;;5007484;28;20664;-79
2021/04/30 06:29:12;;;;;;;17.88;13.23;;;;;;;;;;5009223;28;20213;-80
2021/04/30 06:31:39;;;;;;;17.55;12.20;;;;;;;;;;5008980;28;20866;-80
2021/04/30 06:34:07;;;;;;;14.13;11.63;;;;;;;;;;5009346;28;20288;-79
2021/04/30 06:36:34;;;;;;;19.15;11.73;;;;;;;;;;5010752;28;20202;-78
2021/04/30 06:39:01;;;;;;;18.05;11.05;;;;;;;;;;5010785;28;20241;-78
2021/04/30 06:41:28;;;;;;;19.23;11.20;;;;;;;;;;5006797;28;20203;-78
2021/04/30 06:43:55;;;;;;;18.10;11.83;;;;;;;;;;5005724;28;20444;-78
2021/04/30 06:46:23;;;;;;;19.27;13.00;;;;;;;;;;5009340;28;20549;-77
2021/04/30 06:48:51;;;;;;;15.70;12.25;;;;;;;;;;5008985;28;20796;-80
2021/04/30 06:51:18;;;;;;;20.50;12.23;;;;;;;;;;5009275;28;20268;-77
2021/04/30 06:53:44;;;;;;;16.27;11.67;;;;;;;;;;5009779;28;20454;-81
2021/04/30 06:56:11;;;;;;;19.63;11.60;;;;;;;;;;5011244;28;20572;-78
2021/04/30 06:58:38;;;;;;;16.00;11.60;;;;;;;;;;5011239;28;20488;-77
2021/04/30 07:01:06;;;;;;;19.00;12.70;;;;;;;;;;5011614;28;20915;-79
2021/04/30 07:03:33;;;;;;;18.90;12.67;;;;;;;;;;5010581;28;20192;-77
2021/04/30 07:06:01;;;;;;;17.23;12.77;;;;;;;;;;5005855;28;20496;-81
2021/04/30 07:08:28;;;;;;;13.60;9.83;;;;;;;;;;5009174;28;20483;-83
2021/04/30 07:10:54;;;;;;;17.50;11.80;;;;;;;;;;5012799;28;20488;-77
2021/04/30 07:13:21;;;;;;;16.97;11.13;;;;;;;;;;5013117;28;20804;-76
2021/04/30 07:15:48;;;;;;;16.80;10.97;;;;;;;;;;5013495;28;20458;-78
2021/04/30 07:18:15;;;;;;;15.80;11.00;;;;;;;;;;5014937;28;20469;-76
2021/04/30 07:20:42;;;;;;;14.57;12.00;;;;;;;;;;5014545;28;20484;-79
2021/04/30 07:23:09;;;;;;;14.60;11.63;;;;;;;;;;5015152;28;20515;-78
2021/04/30 07:25:36;;;;;;;21.43;11.80;;;;;;;;;;5012179;28;20471;-82
2021/04/30 07:28:03;;;;;;;12.57;10.83;;;;;;;;;;5009682;28;20461;-78
2021/04/30 07:30:29;;;;;;;16.17;12.70;;;;;;;;;;5012264;28;20482;-80
2021/04/30 07:32:56;;;;;;;18.50;12.37;;;;;;;;;;5014755;28;20456;-80
2021/04/30 07:35:23;;;;;;;15.00;11.33;;;;;;;;;;5013562;28;20435;-82
2021/04/30 07:37:50;;;;;;;16.00;10.87;;;;;;;;;;5012978;28;20490;-81
2021/04/30 07:40:17;;;;;;;17.20;10.87;;;;;;;;;;5014210;28;20446;-78
2021/04/30 07:42:44;;;;;;;18.73;12.20;;;;;;;;;;5014390;28;20751;-79
2021/04/30 07:45:12;;;;;;;13.90;11.07;;;;;;;;;;5014820;28;20473;-79
2021/04/30 07:47:39;;;;;;;16.67;13.00;;;;;;;;;;5013524;28;20465;-80
2021/04/30 07:50:06;;;;;;;18.17;11.30;;;;;;;;;;5008564;28;20483;-78
2021/04/30 07:52:33;;;;;;;20.00;11.83;;;;;;;;;;5010017;28;20777;-78
2021/04/30 07:55:01;;;;;;;15.93;11.10;;;;;;;;;;5012709;28;21002;-78
2021/04/30 07:57:28;;;;;;;15.23;12.13;;;;;;;;;;5012004;28;20526;-80
2021/04/30 07:59:55;;;;;;;15.90;11.13;;;;;;;;;;5011784;28;20438;-79
2021/04/30 08:02:22;;;;;;;18.63;12.03;;;;;;;;;;5012191;28;20633;-77
2021/04/30 08:04:49;;;;;;;17.33;11.70;;;;;;;;;;5008946;28;20436;-78
2021/04/30 08:07:16;;;;;;;14.47;11.70;;;;;;;;;;5008461;28;20439;-74
2021/04/30 08:09:43;;;;;;;21.33;13.33;;;;;;;;;;5011086;28;20467;-78
2021/04/30 08:12:10;;;;;;;17.73;12.33;;;;;;;;;;5011770;28;20439;-79
2021/04/30 08:14:38;;;;;;;25.03;12.90;;;;;;;;;;5012080;28;20482;-77
2021/04/30 08:17:05;;;;;;;18.30;12.17;;;;;;;;;;5012969;28;20455;-79
2021/04/30 08:19:31;;;;;;;14.67;11.20;;;;;;;;;;5013935;28;20553;-79
2021/04/30 08:21:58;;;;;;;18.10;12.07;;;;;;;;;;5014662;28;20435;-84
2021/04/30 08:24:25;;;;;;;22.03;11.90;;;;;;;;;;5014354;28;20507;-79
2021/04/30 08:26:52;;;;;;;12.03;10.80;;;;;;;;;;5011981;28;20435;-82
2021/04/30 08:29:19;;;;;;;17.80;11.20;;;;;;;;;;5009604;28;20451;-80
2021/04/30 08:31:46;;;;;;;19.37;12.50;;;;;;;;;;4998384;28;20514;-78
2021/04/30 08:34:13;;;;;;;17.27;11.97;;;;;;;;;;5013346;28;21107;-80
2021/04/30 08:36:40;;;;;;;18.37;14.70;;;;;;;;;;5013252;28;20443;-81
2021/04/30 08:39:08;;;;;;;17.47;12.67;;;;;;;;;;5014455;28;20478;-83
2021/04/30 08:41:35;;;;;;;16.87;12.07;;;;;;;;;;5014737;28;20769;-82
2021/04/30 08:44:02;;;;;;;16.57;12.87;;;;;;;;;;5015181;28;20530;-78
2021/04/30 08:46:30;;;;;;;20.97;13.73;;;;;;;;;;5014503;28;20439;-82
2021/04/30 08:49:02;;;;;;;19.80;11.73;;;;;;;;;;4995034;28;20458;-79
2021/04/30 08:51:28;;;;;;;19.77;12.73;;;;;;;;;;5007936;28;20900;-80
2021/04/30 08:53:55;;;;;;;24.30;13.03;;;;;;;;;;5010243;28;20443;-81
2021/04/30 08:56:22;;;;;;;16.80;13.23;;;;;;;;;;5010641;28;20435;-77
2021/04/30 08:58:49;;;;;;;22.77;13.30;;;;;;;;;;5011290;28;20787;-81
2021/04/30 09:01:16;;;;;;;17.30;13.23;;;;;;;;;;4993954;28;20522;-78
2021/04/30 09:03:43;;;;;;;16.57;12.50;;;;;;;;;;5013029;28;20506;-81
2021/04/30 09:06:18;;;;;;;19.30;14.33;;;;;;;;;;5013450;28;20447;-78
2021/04/30 09:08:46;;;;;;;19.93;13.80;;;;;;;;;;5012182;28;20485;-79
2021/04/30 09:11:27;;;;;;;18.60;13.77;;;;;;;;;;5012762;28;20850;-82
2021/04/30 09:14:18;;;;;;;22.40;13.37;;;;;;;;;;4991396;28;20443;-82
2021/04/30 09:17:00;;;;;;;20.80;13.07;;;;;;;;;;4991949;28;21006;-82
2021/04/30 09:19:30;;;;;;;23.80;14.67;;;;;;;;;;4995314;28;20682;-79
2021/04/30 09:21:59;;;;;;;17.53;13.13;;;;;;;;;;4973692;28;20444;-77
2021/04/30 09:24:26;;;;;;;13.67;12.20;;;;;;;;;;4996805;28;20851;-76
2021/04/30 09:26:55;;;;;;;20.23;13.63;;;;;;;;;;5012844;28;20439;-79
2021/04/30 09:29:23;;;;;;;17.77;12.60;;;;;;;;;;5008639;28;20979;-83
2021/04/30 09:31:51;;;;;;;16.77;12.00;;;;;;;;;;5006684;28;20487;-79
2021/04/30 09:34:21;;;;;;;19.10;12.73;;;;;;;;;;5010257;28;20479;-77
2021/04/30 09:37:02;;;;;;;19.67;14.43;;;;;;;;;;4992755;28;20467;-76
2021/04/30 09:39:31;;;;;;;18.23;14.10;;;;;;;;;;5009759;28;21277;-81
2021/04/30 09:42:05;;;;;;;21.23;14.30;;;;;;;;;;4994534;28;20861;-78
2021/04/30 09:44:35;;;;;;;18.00;14.77;;;;;;;;;;5012388;28;20504;-79
2021/04/30 09:47:12;;;;;;;19.07;14.13;;;;;;;;;;5012514;28;20443;-75
2021/04/30 09:49:39;;;;;;;16.00;13.93;;;;;;;;;;5012359;28;20865;-79
2021/04/30 09:52:07;;;;;;;21.33;13.73;;;;;;;;;;5007332;28;20481;-79
2021/04/30 09:54:37;;;;;;;16.60;12.60;;;;;;;;;;5007530;28;20521;-81
2021/04/30 09:57:05;;;;;;;18.90;13.43;;;;;;;;;;5009849;28;20480;-81
2021/04/30 09:59:32;;;;;;;22.83;14.40;;;;;;;;;;4992412;28;20451;-80
2021/04/30 10:02:02;;;;;;;19.33;12.40;;;;;;;;;;5009925;28;20551;-79
2021/04/30 10:04:32;;;;;;;17.57;12.73;;;;;;;;;;5011269;28;20459;-78
2021/04/30 10:06:59;;;;;;;17.10;13.30;;;;;;;;;;5011631;28;20435;-79
2021/04/30 10:09:27;;;;;;;22.93;13.33;;;;;;;;;;4993987;28;20481;-82
2021/04/30 10:11:54;;;;;;;17.70;13.17;;;;;;;;;;5011955;28;20487;-82
2021/04/30 10:14:22;;;;;;;19.30;12.70;;;;;;;;;;4976611;28;20440;-80
2021/04/30 10:16:49;;;;;;;15.67;12.87;;;;;;;;;;4987238;28;20458;-82
2021/04/30 10:19:16;;;;;;;16.60;13.10;;;;;;;;;;4983997;28;20459;-76
2021/04/30 10:21:44;;;;;;;18.67;13.10;;;;;;;;;;5009222;28;20447;-81
2021/04/30 10:24:14;;;;;;;19.10;13.47;;;;;;;;;;5009597;28;20943;-76
2021/04/30 10:26:40;;;;;;;16.10;12.30;;;;;;;;;;4982348;28;20470;-77
2021/04/30 10:29:10;;;;;;;16.60;12.10;;;;;;;;;;4991674;28;20801;-81
2021/04/30 10:31:38;;;;;;;20.73;14.20;;;;;;;;;;4991999;28;20491;-79
2021/04/30 10:34:07;;;;;;;18.17;13.00;;;;;;;;;;4974494;28;20444;-81
2021/04/30 10:36:35;;;;;;;17.60;13.37;;;;;;;;;;4972077;28;20456;-75
2021/04/30 10:39:02;;;;;;;20.07;13.83;;;;;;;;;;4985956;28;20537;-81
2021/04/30 10:41:30;;;;;;;21.73;14.03;;;;;;;;;;4979391;28;20463;-78
2021/04/30 10:44:11;;;;;;;22.30;14.83;;;;;;;;;;4971888;28;20576;-78
2021/04/30 10:46:39;;;;;;;24.20;15.27;;;;;;;;;;4958977;28;20517;-82
2021/04/30 10:49:16;;;;;;;19.37;15.03;;;;;;;;;;4974807;28;20850;-79
2021/04/30 10:51:44;;;;;;;19.60;15.30;;;;;;;;;;4990656;28;20493;-79
2021/04/30 10:54:26;;;;;;;22.10;15.93;;;;;;;;;;4978285;28;20854;-79
2021/04/30 10:57:00;;;;;;;23.33;14.60;;;;;;;;;;4980670;28;20450;-78
2021/04/30 10:59:27;;;;;;;24.00;16.03;;;;;;;;;;4992433;28;20461;-78
2021/04/30 11:02:02;;;;;;;20.27;15.40;;;;;;;;;;4990067;28;20497;-82
2021/04/30 11:04:29;;;;;;;18.40;13.43;;;;;;;;;;4992983;28;20443;-80
2021/04/30 11:06:56;;;;;;;18.67;13.73;;;;;;;;;;4993379;28;20444;-82
2021/04/30 11:09:31;;;;;;;21.63;16.10;;;;;;;;;;5009291;28;20565;-76
2021/04/30 11:12:00;;;;;;;21.10;15.67;;;;;;;;;;4972319;28;20494;-77
2021/04/30 11:14:29;;;;;;;20.57;14.67;;;;;;;;;;4985802;28;20798;-83
2021/04/30 11:16:57;;;;;;;21.50;17.40;;;;;;;;;;4995601;28;20446;-78
2021/04/30 11:19:25;;;;;;;20.30;15.60;;;;;;;;;;5010177;28;20466;-76
2021/04/30 11:21:53;;;;;;;19.23;15.03;;;;;;;;;;4997279;28;20446;-76
2021/04/30 11:24:34;;;;;;;19.23;16.13;;;;;;;;;;4998898;28;20828;-78
2021/04/30 11:27:16;;;;;;;22.10;14.90;;;;;;;;;;4957534;28;20452;-80
2021/04/30 11:29:43;;;;;;;22.27;15.37;;;;;;;;;;4958319;28;20445;-81
2021/04/30 11:32:24;;;;;;;17.90;13.87;;;;;;;;;;4973381;28;20510;-79
2021/04/30 11:34:52;;;;;;;18.60;12.97;;;;;;;;;;4969341;28;21825;-78
2021/04/30 11:37:20;;;;;;;27.30;15.30;;;;;;;;;;4998653;28;20443;-76
2021/04/30 11:39:47;;;;;;;20.03;15.60;;;;;;;;;;5006954;28;20473;-79
2021/04/30 11:42:14;;;;;;;21.80;14.70;;;;;;;;;;5000356;28;20522;-80
2021/04/30 11:44:41;;;;;;;16.93;14.33;;;;;;;;;;4993246;28;20519;-83
2021/04/30 11:47:10;;;;;;;17.90;13.87;;;;;;;;;;4975727;28;20447;-80
2021/04/30 11:49:38;;;;;;;21.83;16.13;;;;;;;;;;4976443;28;20964;-80
2021/04/30 11:52:06;;;;;;;17.90;13.90;;;;;;;;;;4976964;28;20490;-79
2021/04/30 11:54:34;;;;;;;16.90;13.30;;;;;;;;;;4994246;28;20539;-77
2021/04/30 11:57:03;;;;;;;20.73;14.97;;;;;;;;;;4977337;28;20448;-79
2021/04/30 11:59:29;;;;;;;20.00;15.57;;;;;;;;;;4981058;28;20542;-80
2021/04/30 12:01:57;;;;;;;20.37;15.13;;;;;;;;;;4996294;28;20428;-80
2021/04/30 12:04:36;;;;;;;19.00;14.97;;;;;;;;;;4992317;28;20947;-79
2021/04/30 12:07:02;;;;;;;20.40;14.60;;;;;;;;;;4975235;28;20482;-77
2021/04/30 12:09:30;;;;;;;24.67;15.73;;;;;;;;;;5009172;28;20893;-80
2021/04/30 12:12:10;;;;;;;21.07;15.60;;;;;;;;;;5012991;28;21023;-79
2021/04/30 12:14:43;;;;;;;21.10;16.70;;;;;;;;;;5013773;28;20534;-81
2021/04/30 12:17:20;;;;;;;21.90;16.43;;;;;;;;;;5013879;28;20627;-77
2021/04/30 12:19:54;;;;;;;20.37;14.73;;;;;;;;;;5014078;28;20807;-78
2021/04/30 12:22:21;;;;;;;17.57;13.90;;;;;;;;;;4990966;28;20862;-77
2021/04/30 12:24:49;;;;;;;19.07;13.20;;;;;;;;;;5008360;28;21078;-80
2021/04/30 12:27:25;;;;;;;16.63;13.90;;;;;;;;;;5010893;28;20859;-78
2021/04/30 12:29:52;;;;;;;21.73;14.77;;;;;;;;;;4993854;28;20470;-77
2021/04/30 12:32:27;;;;;;;20.17;13.80;;;;;;;;;;5011704;28;20911;-79
2021/04/30 12:34:55;;;;;;;15.43;13.07;;;;;;;;;;5012349;28;20825;-78
2021/04/30 12:37:22;;;;;;;20.87;15.53;;;;;;;;;;4996348;28;20443;-82
2021/04/30 12:39:50;;;;;;;19.47;14.40;;;;;;;;;;5012897;28;20492;-78
2021/04/30 12:42:16;;;;;;;17.13;13.93;;;;;;;;;;5000987;28;20447;-78
2021/04/30 12:44:52;;;;;;;19.67;15.67;;;;;;;;;;5000974;28;20916;-81
2021/04/30 12:47:19;;;;;;;16.93;13.07;;;;;;;;;;4988055;28;20797;-76
2021/04/30 12:49:46;;;;;;;18.40;15.27;;;;;;;;;;5009957;28;20445;-79
2021/04/30 12:52:15;;;;;;;16.90;13.80;;;;;;;;;;5010812;28;20594;-79
2021/04/30 12:54:41;;;;;;;18.97;15.77;;;;;;;;;;5011047;28;20450;-78
2021/04/30 12:57:10;;;;;;;21.33;16.43;;;;;;;;;;5011418;28;20455;-81
2021/04/30 12:59:37;;;;;;;19.20;14.53;;;;;;;;;;5007995;28;20434;-80
2021/04/30 13:02:07;;;;;;;20.63;14.63;;;;;;;;;;5008321;28;20443;-82
2021/04/30 13:04:41;;;;;;;20.30;15.47;;;;;;;;;;5011008;28;20457;-81
2021/04/30 13:07:09;;;;;;;17.80;14.87;;;;;;;;;;5009723;28;20449;-79
2021/04/30 13:09:36;;;;;;;19.40;14.20;;;;;;;;;;4975620;28;20468;-82
2021/04/30 13:12:04;;;;;;;18.77;12.93;;;;;;;;;;4991982;28;20841;-80
2021/04/30 13:14:42;;;;;;;18.80;13.70;;;;;;;;;;4991123;28;20436;-76
2021/04/30 13:17:16;;;;;;;17.03;13.50;;;;;;;;;;4985862;28;20938;-78
2021/04/30 13:19:43;;;;;;;13.30;11.90;;;;;;;;;;4989216;28;21045;-81
2021/04/30 13:22:13;;;;;;;19.70;13.73;;;;;;;;;;4990271;28;20448;-79
2021/04/30 13:24:40;;;;;;;23.20;14.53;;;;;;;;;;4990645;28;20448;-79
2021/04/30 13:27:08;;;;;;;17.57;14.43;;;;;;;;;;4990708;28;20502;-80
2021/04/30 13:29:36;;;;;;;16.63;13.83;;;;;;;;;;4990327;28;20498;-82
2021/04/30 13:32:09;;;;;;;18.17;14.20;;;;;;;;;;4969947;28;20486;-81
2021/04/30 13:34:38;;;;;;;17.23;14.00;;;;;;;;;;4989100;28;20436;-80
2021/04/30 13:37:05;;;;;;;15.23;13.63;;;;;;;;;;4990373;28;20522;-82
2021/04/30 13:39:33;;;;;;;15.40;13.00;;;;;;;;;;4985438;28;20841;-82
2021/04/30 13:42:00;;;;;;;17.03;12.83;;;;;;;;;;4972260;28;20416;-78
2021/04/30 13:44:28;;;;;;;20.60;14.70;;;;;;;;;;4990128;28;20458;-77
2021/04/30 13:46:55;;;;;;;17.80;13.50;;;;;;;;;;4992670;28;20452;-81
2021/04/30 13:49:43;;;;;;;15.17;13.57;;;;;;;;;;4992701;28;20475;-83
2021/04/30 13:52:09;;;;;;;15.47;12.70;;;;;;;;;;4977602;28;20549;-76
2021/04/30 13:54:36;;;;;;;23.40;16.10;;;;;;;;;;4986628;28;20439;-78
2021/04/30 13:57:04;;;;;;;17.57;13.30;;;;;;;;;;4988027;28;20442;-76
2021/04/30 13:59:34;;;;;;;21.57;15.90;;;;;;;;;;4989775;28;20446;-76
2021/04/30 14:02:01;;;;;;;19.50;14.30;;;;;;;;;;4989617;28;20436;-81
2021/04/30 14:04:29;;;;;;;18.60;13.43;;;;;;;;;;4990013;28;21190;-81
2021/04/30 14:06:56;;;;;;;17.27;13.97;;;;;;;;;;4990073;28;20456;-82
2021/04/30 14:09:23;;;;;;;19.73;13.80;;;;;;;;;;5007668;28;20453;-78
2021/04/30 14:11:50;;;;;;;16.60;13.40;;;;;;;;;;5010444;28;20828;-78
2021/04/30 14:14:17;;;;;;;16.00;12.83;;;;;;;;;;5011815;28;20451;-77
2021/04/30 14:16:44;;;;;;;16.17;13.77;;;;;;;;;;5007571;28;20530;-79
2021/04/30 14:19:13;;;;;;;14.97;13.03;;;;;;;;;;5006469;28;20470;-82
2021/04/30 14:21:40;;;;;;;21.30;15.73;;;;;;;;;;4991986;28;20418;-80
2021/04/30 14:24:08;;;;;;;18.60;12.73;;;;;;;;;;5009570;28;20817;-76
2021/04/30 14:26:36;;;;;;;17.03;14.60;;;;;;;;;;4992633;28;20824;-77